Weather reports worldwide

Advertisment
Great Dun Fell, United Kingdom (3227): temperature & dewpoint: 20.03.2019 19:00:00 - 26.03.2019 19:00:00 (GMT)Great Dun Fell, United Kingdom (3227): wind speed & gusts: 20.03.2019 19:00:00 - 26.03.2019 19:00:00 (GMT)Great Dun Fell, United Kingdom (3227): wind direction: 20.03.2019 19:00:00 - 26.03.2019 19:00:00 (GMT)
Date & Time tt [°C] td [°C] ff [km/h] ff [kn] fx [km/h] fx [kn] dd
26.03.2019 19:00:00 2,0 2,0 31 17 52 28 WNW
26.03.2019 18:00:00 2,0 2,0 37 20 52 28 W
26.03.2019 17:00:00 1,8 1,8 44 24 54 29 W
26.03.2019 16:00:00 1,9 1,7 44 24 61 33 W
26.03.2019 15:00:00 1,8 1,3 44 24 63 34 W
26.03.2019 14:00:00 1,9 1,0 48 26 65 35 W
26.03.2019 13:00:00 1,5 0,5 54 29 63 34 W
26.03.2019 12:00:00 1,7 0,0 55 30 76 41 W
26.03.2019 11:00:00 1,5 1,4 59 32 80 43 W
26.03.2019 10:00:00 0,9 0,9 61 33 76 41 W
26.03.2019 09:00:00 0,3 0,3 55 30 83 45 W
26.03.2019 08:00:00 0,4 0,4 59 32 80 43 W
26.03.2019 07:00:00 0,3 0,3 65 35 78 42 W
26.03.2019 06:00:00 1,1 1,1 67 36 85 46 W
26.03.2019 05:00:00 1,3 1,3 57 31 68 37 W
26.03.2019 04:00:00 0,9 0,9 44 24 55 30 W
26.03.2019 03:00:00 0,4 0,4 34 18 - - W
26.03.2019 02:00:00 0,5 0,5 31 17 - - NW
26.03.2019 01:00:00 0,5 0,5 35 19 - - NW
26.03.2019 00:00:00 0,2 0,2 31 17 - - WNW
25.03.2019 23:00:00 0,4 0,4 24 13 - - WNW
25.03.2019 22:00:00 0,8 0,8 29 16 - - NW
25.03.2019 21:00:00 0,9 0,9 28 15 - - NW
25.03.2019 20:00:00 1,0 1,0 22 12 - - NW
25.03.2019 19:00:00 1,3 0,9 24 13 - - WNW
25.03.2019 18:00:00 2,0 0,5 26 14 - - WNW
25.03.2019 17:00:00 2,6 0,3 29 16 - - WNW
25.03.2019 16:00:00 2,9 2,0 26 14 - - WNW
25.03.2019 15:00:00 2,9 2,9 22 12 - - W
25.03.2019 14:00:00 2,8 2,8 24 13 - - W
25.03.2019 13:00:00 2,8 2,8 22 12 - - W
25.03.2019 12:00:00 2,1 2,1 15 8 - - N
25.03.2019 11:00:00 1,3 1,3 16 9 - - N
25.03.2019 10:00:00 0,1 0,1 28 15 - - N
25.03.2019 09:00:00 -0,5 -0,5 37 20 48 26 NNW
25.03.2019 08:00:00 -1,3 -1,3 41 22 57 31 NNW
25.03.2019 07:00:00 -1,6 -1,6 44 24 63 34 NNW
25.03.2019 06:00:00 -1,6 -1,6 54 29 65 35 NNW
25.03.2019 05:00:00 -1,8 -1,8 52 28 65 35 NNW
25.03.2019 04:00:00 -1,7 -1,7 46 25 61 33 NW
25.03.2019 03:00:00 -1,7 -1,7 42 23 68 37 NW
25.03.2019 02:00:00 -1,7 -1,7 55 30 76 41 NW
25.03.2019 01:00:00 -1,5 -1,5 59 32 72 39 NW
25.03.2019 00:00:00 -1,2 -1,2 54 29 81 44 WNW
24.03.2019 23:00:00 -1,0 -1,0 65 35 81 44 WNW
24.03.2019 22:00:00 -1,0 -1,0 52 28 83 45 WNW
24.03.2019 21:00:00 -0,8 -0,8 67 36 91 49 WNW
24.03.2019 20:00:00 0,1 0,1 55 30 91 49 WNW
24.03.2019 19:00:00 0,2 0,2 72 39 87 47 W
24.03.2019 18:00:00 1,0 1,0 63 34 89 48 W
24.03.2019 17:00:00 1,3 1,3 67 36 102 55 W
24.03.2019 16:00:00 1,5 1,5 72 39 96 52 W
24.03.2019 15:00:00 1,2 1,2 81 44 106 57 W
24.03.2019 14:00:00 0,9 0,9 68 37 85 46 W
24.03.2019 13:00:00 0,5 0,5 68 37 94 51 W
24.03.2019 12:00:00 0,6 0,6 72 39 87 47 W
24.03.2019 11:00:00 0,1 0,1 70 38 85 46 W
24.03.2019 10:00:00 -0,4 -0,4 63 34 74 40 W
24.03.2019 09:00:00 -1,0 -1,0 61 33 70 38 W
24.03.2019 08:00:00 -1,5 -1,5 55 30 70 38 W
24.03.2019 07:00:00 -1,6 -1,6 55 30 65 35 W
24.03.2019 06:00:00 -1,3 -1,3 42 23 57 31 WSW
24.03.2019 05:00:00 -1,4 -1,4 44 24 52 28 WSW
24.03.2019 04:00:00 -1,7 -1,7 39 21 48 26 SW
24.03.2019 03:00:00 -1,6 -1,6 34 18 - - WSW
24.03.2019 02:00:00 -1,1 -1,1 28 15 - - SW
24.03.2019 01:00:00 -1,4 -1,4 22 12 - - SW
24.03.2019 00:00:00 -1,1 -1,1 22 12 - - SW
23.03.2019 23:00:00 -0,9 -0,9 21 11 - - WSW
23.03.2019 22:00:00 -0,8 -0,8 24 13 - - W
23.03.2019 21:00:00 -0,7 -0,7 21 11 - - W
23.03.2019 20:00:00 -0,4 -0,4 22 12 - - W
23.03.2019 19:00:00 -0,2 -0,2 22 12 - - WNW
23.03.2019 18:00:00 0,2 0,2 26 14 - - WNW
23.03.2019 17:00:00 0,5 0,5 22 12 - - W
23.03.2019 16:00:00 0,5 0,5 26 14 - - W
23.03.2019 15:00:00 0,3 0,3 28 15 - - WNW
23.03.2019 14:00:00 0,0 0,0 34 18 - - W
23.03.2019 13:00:00 -0,4 -0,4 28 15 - - W
23.03.2019 12:00:00 -0,6 -0,6 34 18 - - W
23.03.2019 11:00:00 -0,4 -0,4 37 20 46 25 W
23.03.2019 10:00:00 -0,8 -0,8 41 22 52 28 W
23.03.2019 09:00:00 -1,2 -1,2 26 14 50 27 W
23.03.2019 08:00:00 -1,4 -1,4 44 24 54 29 W
23.03.2019 07:00:00 -1,8 -1,8 39 21 57 31 W
23.03.2019 06:00:00 -1,6 -1,6 41 22 55 30 W
23.03.2019 05:00:00 -1,5 -1,5 46 25 67 36 W
23.03.2019 04:00:00 -1,4 -1,4 55 30 72 39 W
23.03.2019 03:00:00 -1,2 -1,2 55 30 67 36 W
23.03.2019 02:00:00 -0,9 -0,9 55 30 68 37 W
23.03.2019 01:00:00 -0,5 -0,5 63 34 76 41 W
23.03.2019 00:00:00 -0,3 -0,3 48 26 59 32 W
22.03.2019 23:00:00 -0,2 -0,2 46 25 61 33 W
22.03.2019 22:00:00 1,3 1,3 50 27 65 35 W
22.03.2019 21:00:00 1,9 1,9 55 30 72 39 W
22.03.2019 20:00:00 2,3 2,3 55 30 65 35 W
22.03.2019 19:00:00 2,6 2,6 48 26 72 39 W
22.03.2019 18:00:00 3,3 3,3 63 34 76 41 W
22.03.2019 17:00:00 4,5 4,5 55 30 74 40 SW
22.03.2019 16:00:00 4,1 4,1 67 36 87 47 SW
22.03.2019 15:00:00 3,8 3,8 74 40 85 46 SW
22.03.2019 14:00:00 3,6 3,6 63 34 89 48 SW
22.03.2019 13:00:00 3,3 3,3 76 41 107 58 SW
22.03.2019 12:00:00 3,2 3,2 89 48 109 59 SW
22.03.2019 11:00:00 2,9 2,9 91 49 109 59 SW
22.03.2019 10:00:00 3,1 3,1 74 40 96 52 WSW
22.03.2019 09:00:00 4,2 4,2 67 36 87 47 SW
22.03.2019 08:00:00 4,2 4,2 63 34 78 42 SW
22.03.2019 07:00:00 4,4 4,4 61 33 74 40 SW
22.03.2019 06:00:00 4,5 4,5 55 30 68 37 SW
22.03.2019 05:00:00 4,4 4,4 52 28 68 37 SW
22.03.2019 04:00:00 4,4 4,4 55 30 67 36 SW
22.03.2019 03:00:00 4,2 4,2 50 27 61 33 SW
22.03.2019 02:00:00 4,7 4,7 54 29 68 37 SW
22.03.2019 01:00:00 5,1 5,1 50 27 67 36 SW
22.03.2019 00:00:00 5,1 5,1 52 28 65 35 SW
21.03.2019 23:00:00 4,9 4,9 48 26 54 29 SW
21.03.2019 22:00:00 4,5 4,5 41 22 48 26 SW
21.03.2019 21:00:00 4,2 4,2 31 17 - - SSW
21.03.2019 20:00:00 4,3 4,3 26 14 - - SSW
21.03.2019 19:00:00 4,7 4,7 28 15 - - SSW
21.03.2019 18:00:00 5,2 5,2 26 14 - - SW
21.03.2019 17:00:00 5,6 5,6 29 16 - - SW
21.03.2019 16:00:00 6,0 6,0 31 17 - - SW
21.03.2019 15:00:00 6,4 6,4 34 18 - - SW
21.03.2019 14:00:00 6,9 6,9 29 16 - - WSW
21.03.2019 13:00:00 6,5 6,5 31 17 - - W
21.03.2019 12:00:00 5,8 5,8 34 18 - - WSW
21.03.2019 11:00:00 5,5 5,5 37 20 - - WSW
21.03.2019 10:00:00 5,3 5,3 39 21 46 25 WSW
21.03.2019 09:00:00 5,1 5,1 39 21 48 26 WSW
21.03.2019 08:00:00 4,9 4,9 46 25 52 28 WSW
21.03.2019 07:00:00 4,7 4,7 46 25 63 34 WSW
21.03.2019 06:00:00 4,6 4,6 55 30 65 35 W
21.03.2019 05:00:00 4,8 4,8 57 31 68 37 W
21.03.2019 04:00:00 5,1 5,1 61 33 76 41 W
21.03.2019 03:00:00 5,4 5,4 57 31 68 37 WSW
21.03.2019 02:00:00 5,1 5,1 59 32 74 40 WSW
21.03.2019 01:00:00 4,1 4,1 59 32 67 36 WSW
21.03.2019 00:00:00 4,0 4,0 57 31 68 37 WSW
20.03.2019 23:00:00 4,3 4,3 59 32 67 36 WSW
20.03.2019 22:00:00 4,3 4,3 54 29 63 34 SW
20.03.2019 21:00:00 4,0 4,0 54 29 63 34 SW
20.03.2019 20:00:00 3,9 3,9 54 29 65 35 SW
20.03.2019 19:00:00 4,7 4,7 54 29 61 33 SW

tt = temperature
td = dewpoint
ff = wind speed
fx = gusts
dd = wind direction

Next stations